createdAt,value
2023-07-16T00:11:33.555Z,107
2023-07-16T00:31:33.546Z,106
2023-07-16T00:51:33.565Z,101
2023-07-16T01:11:33.560Z,101
2023-07-16T01:31:33.658Z,101
2023-07-16T01:51:33.606Z,101
2023-07-16T02:11:33.635Z,100
2023-07-16T02:31:33.721Z,104
2023-07-16T02:51:33.679Z,105
2023-07-16T03:11:33.668Z,102
2023-07-16T03:31:33.742Z,103
2023-07-16T03:51:33.685Z,104
2023-07-16T04:11:33.700Z,102
2023-07-16T04:31:33.700Z,103
2023-07-16T04:51:33.720Z,107
2023-07-16T05:11:33.757Z,106
2023-07-16T05:31:33.823Z,107
2023-07-16T06:11:33.795Z,111
2023-07-16T06:31:33.821Z,105
2023-07-16T06:51:33.819Z,109
2023-07-16T07:11:33.819Z,109
2023-07-16T07:31:33.921Z,107
2023-07-16T07:51:33.880Z,110
2023-07-16T08:11:33.927Z,110
2023-07-16T08:31:33.900Z,113
2023-07-16T08:51:33.918Z,109
2023-07-16T09:11:33.911Z,109
2023-07-16T09:31:33.944Z,106
2023-07-16T09:51:33.956Z,106
2023-07-16T10:11:33.964Z,106
2023-07-16T10:31:33.992Z,104
2023-07-16T10:51:33.968Z,98
2023-07-16T11:11:33.999Z,98
2023-07-16T11:31:34.007Z,97
2023-07-16T12:31:34.134Z,97
2023-07-16T12:51:34.080Z,93
2023-07-16T13:11:34.041Z,91
2023-07-16T13:31:34.117Z,88
2023-07-16T13:51:34.084Z,87
2023-07-16T14:11:34.072Z,88
2023-07-16T14:31:34.144Z,82
2023-07-16T14:51:34.150Z,83
2023-07-16T15:11:34.147Z,88
2023-07-16T15:31:34.202Z,87
2023-07-16T15:51:34.191Z,85
2023-07-16T16:11:34.142Z,90
2023-07-16T16:31:34.182Z,91
2023-07-16T16:51:34.170Z,89
2023-07-16T17:11:34.176Z,86
2023-07-16T17:31:34.475Z,88
2023-07-16T17:51:34.268Z,83
2023-07-16T18:11:34.240Z,86
2023-07-16T18:31:34.318Z,86
2023-07-16T18:51:34.280Z,87
2023-07-16T19:11:34.291Z,87
2023-07-16T19:31:34.336Z,88
2023-07-16T19:51:34.302Z,91
2023-07-16T20:11:34.328Z,91
2023-07-16T20:31:34.354Z,94
2023-07-16T20:51:34.334Z,90
2023-07-16T21:11:34.325Z,94
2023-07-16T21:31:34.424Z,92
2023-07-16T21:51:34.367Z,94
2023-07-16T22:11:34.403Z,93
2023-07-16T22:31:34.395Z,94
2023-07-16T22:51:34.412Z,96
2023-07-16T23:11:34.413Z,94
2023-07-16T23:31:34.491Z,95
2023-07-16T23:51:34.465Z,94
